KSAA/SAA METAR and TAF weather

Enter ICAO airport designator
Station Type Date Time Source
KSAA METAR 2018/12/15 04:15 UTC NOAA

KSAA 150415Z AUTO 18003KT 10SM CLR M04/M11 A3019 RMK AO2


Station Type Date Time Source
KSAA Decoded METAR 2018/12/15 04:15 UTC NOAA

Station name not available
Dec 14, 2018 - 11:15 PM EST / 2018.12.15 0415 UTC
Wind: from the S (180 degrees) at 3 MPH (3 KT):0
Visibility: 10 mile(s):0
Sky conditions: clear
Temperature: 24 F (-4 C)
Dew Point: 12 F (-11 C)
Relative Humidity: 58%
Pressure (altimeter): 30.19 in. Hg (1022 hPa)
ob: KSAA 150415Z AUTO 18003KT 10SM CLR M04/M11 A3019 RMK AO2
cycle: 4

Station Type Date Time Source
KSAA TAF UTC NOAA

Error!


Example: see airport list